createdAt,value
2022-11-27T00:01:37.481Z,3.10
2022-11-27T00:04:07.936Z,3.10
2022-11-27T00:06:40.290Z,3.10
2022-11-27T00:09:11.957Z,3.10
2022-11-27T00:11:40.822Z,3.10
2022-11-27T00:14:12.794Z,3.00
2022-11-27T00:16:42.454Z,3.00
2022-11-27T00:19:12.378Z,2.90
2022-11-27T00:21:42.198Z,2.90
2022-11-27T00:24:13.004Z,2.90
2022-11-27T00:26:41.265Z,2.80
2022-11-27T00:29:09.360Z,2.80
2022-11-27T00:31:38.727Z,2.80
2022-11-27T00:34:09.441Z,2.90
2022-11-27T00:36:41.136Z,2.90
2022-11-27T00:39:13.753Z,2.90
2022-11-27T00:41:41.887Z,2.90
2022-11-27T00:44:10.010Z,2.90
2022-11-27T00:46:38.628Z,2.90
2022-11-27T00:49:08.465Z,2.80
2022-11-27T00:51:37.307Z,2.80
2022-11-27T00:54:06.234Z,2.80
2022-11-27T00:56:39.981Z,2.80
2022-11-27T00:59:09.175Z,2.80
2022-11-27T01:01:44.029Z,2.80
2022-11-27T01:04:16.646Z,2.80
2022-11-27T01:06:46.172Z,2.70
2022-11-27T01:09:15.651Z,2.70
2022-11-27T01:11:45.572Z,2.70
2022-11-27T01:14:17.526Z,2.70
2022-11-27T01:16:46.405Z,2.70
2022-11-27T01:19:17.757Z,2.80
2022-11-27T01:21:46.718Z,2.80
2022-11-27T01:24:17.730Z,2.80
2022-11-27T01:26:48.196Z,3.00
2022-11-27T01:29:16.290Z,3.10
2022-11-27T01:31:44.757Z,3.20
2022-11-27T01:34:18.301Z,3.30
2022-11-27T01:36:47.117Z,3.10
2022-11-27T01:39:19.663Z,3.00
2022-11-27T01:41:50.175Z,3.00
2022-11-27T01:44:53.655Z,3.00
2022-11-27T01:47:46.920Z,2.90
2022-11-27T01:50:23.807Z,2.80
2022-11-27T01:52:56.998Z,2.80
2022-11-27T01:55:34.236Z,2.70
2022-11-27T01:58:10.267Z,2.60
2022-11-27T02:00:40.230Z,2.50
2022-11-27T02:03:08.435Z,2.50
2022-11-27T02:05:37.651Z,2.50
2022-11-27T02:08:10.533Z,2.40
2022-11-27T02:10:51.591Z,2.40
2022-11-27T02:13:31.811Z,2.40
2022-11-27T02:16:17.788Z,2.40
2022-11-27T02:18:55.543Z,2.40
2022-11-27T02:21:35.044Z,2.50
2022-11-27T02:24:39.048Z,2.50
2022-11-27T02:27:56.028Z,2.50
2022-11-27T02:30:25.510Z,2.50
2022-11-27T02:33:01.690Z,2.60
2022-11-27T02:35:36.599Z,2.60
2022-11-27T02:38:14.413Z,2.60
2022-11-27T02:40:52.564Z,2.60
2022-11-27T02:43:29.373Z,2.60
2022-11-27T02:46:01.916Z,2.50
2022-11-27T02:48:37.293Z,2.50
2022-11-27T02:51:09.341Z,2.50
2022-11-27T02:53:44.557Z,2.40
2022-11-27T02:56:21.182Z,2.30
2022-11-27T02:58:53.405Z,2.20
2022-11-27T03:01:25.517Z,2.10
2022-11-27T03:03:58.167Z,2.20
2022-11-27T03:06:32.729Z,2.20
2022-11-27T03:09:08.643Z,2.30
2022-11-27T03:11:38.661Z,2.30
2022-11-27T03:14:10.883Z,2.30
2022-11-27T03:16:50.681Z,2.30
2022-11-27T03:19:27.481Z,2.30
2022-11-27T03:21:59.231Z,2.30
2022-11-27T03:24:31.277Z,2.20
2022-11-27T03:27:01.529Z,2.20
2022-11-27T03:29:37.447Z,2.10
2022-11-27T03:32:08.063Z,2.10
2022-11-27T03:34:37.887Z,2.10
2022-11-27T03:37:07.418Z,2.10
2022-11-27T03:39:36.202Z,2.10
2022-11-27T03:42:20.779Z,2.00
2022-11-27T03:45:01.503Z,2.00
2022-11-27T03:47:56.850Z,2.10
2022-11-27T03:50:43.295Z,2.00
2022-11-27T03:53:24.460Z,2.00
2022-11-27T03:56:09.964Z,2.00
2022-11-27T03:58:46.476Z,2.00
2022-11-27T04:01:20.827Z,2.00
2022-11-27T04:03:51.150Z,1.90
2022-11-27T04:06:19.733Z,2.00
2022-11-27T04:08:48.636Z,1.90
2022-11-27T04:11:18.060Z,1.90
2022-11-27T04:13:47.256Z,1.90
2022-11-27T04:16:15.669Z,2.00
2022-11-27T04:18:45.450Z,1.90
2022-11-27T04:21:16.892Z,2.00
2022-11-27T04:23:47.141Z,1.90
2022-11-27T04:26:15.475Z,1.90
2022-11-27T04:28:44.513Z,2.00
2022-11-27T04:31:12.681Z,2.00
2022-11-27T04:33:41.233Z,2.10
2022-11-27T04:36:10.186Z,2.20
2022-11-27T04:38:40.139Z,2.30
2022-11-27T04:41:08.613Z,2.40
2022-11-27T04:43:36.758Z,2.50
2022-11-27T04:46:05.623Z,2.50
2022-11-27T04:48:33.798Z,2.50
2022-11-27T04:51:02.421Z,2.50
2022-11-27T04:53:30.750Z,2.50
2022-11-27T04:56:00.930Z,2.50
2022-11-27T04:58:29.036Z,2.50
2022-11-27T05:00:57.666Z,2.40
2022-11-27T05:03:28.229Z,2.40
2022-11-27T05:05:58.697Z,2.30
2022-11-27T05:08:30.212Z,2.30
2022-11-27T05:11:05.827Z,2.30
2022-11-27T05:13:36.693Z,2.30
2022-11-27T05:16:05.896Z,2.30
2022-11-27T05:18:35.483Z,2.20
2022-11-27T05:21:07.063Z,2.20
2022-11-27T05:23:36.475Z,2.10
2022-11-27T05:26:08.107Z,2.00
2022-11-27T05:28:36.234Z,2.00
2022-11-27T05:31:05.097Z,2.00
2022-11-27T05:33:33.286Z,2.00
2022-11-27T05:36:01.997Z,2.00
2022-11-27T05:38:30.190Z,2.00
2022-11-27T05:40:58.347Z,2.00
2022-11-27T05:43:28.038Z,2.00
2022-11-27T05:45:57.221Z,2.00
2022-11-27T05:48:25.350Z,2.00
2022-11-27T05:50:53.963Z,1.90
2022-11-27T05:53:22.483Z,1.90
2022-11-27T05:55:50.763Z,2.00
2022-11-27T05:58:19.049Z,2.00
2022-11-27T06:00:49.386Z,2.00
2022-11-27T06:03:17.708Z,2.10
2022-11-27T06:05:45.982Z,2.10
2022-11-27T06:08:15.242Z,2.10
2022-11-27T06:10:43.557Z,2.10
2022-11-27T06:13:12.038Z,2.10
2022-11-27T06:15:41.296Z,2.10
2022-11-27T06:18:13.326Z,2.20
2022-11-27T06:20:44.656Z,2.20
2022-11-27T06:23:14.622Z,2.20
2022-11-27T06:25:43.060Z,2.20
2022-11-27T06:28:11.163Z,2.30
2022-11-27T06:30:39.795Z,2.30
2022-11-27T06:33:07.887Z,2.40
2022-11-27T06:35:37.370Z,2.40
2022-11-27T06:38:05.953Z,2.40
2022-11-27T06:40:34.480Z,2.40
2022-11-27T06:43:02.621Z,2.40
2022-11-27T06:45:31.040Z,2.40
2022-11-27T06:48:00.374Z,2.40
2022-11-27T06:50:28.531Z,2.50
2022-11-27T06:52:58.817Z,2.50
2022-11-27T06:55:27.387Z,2.60
2022-11-27T06:57:55.931Z,2.70
2022-11-27T07:00:25.191Z,2.70
2022-11-27T07:02:55.798Z,2.90
2022-11-27T07:05:25.791Z,2.70
2022-11-27T07:07:55.089Z,2.70
2022-11-27T07:10:24.647Z,2.70
2022-11-27T07:12:53.092Z,2.70
2022-11-27T07:15:21.326Z,2.70
2022-11-27T07:17:50.709Z,2.70
2022-11-27T07:20:19.543Z,2.80
2022-11-27T07:22:48.705Z,2.80
2022-11-27T07:25:17.103Z,2.80
2022-11-27T07:27:47.204Z,2.80
2022-11-27T07:30:16.684Z,2.80
2022-11-27T07:32:44.840Z,2.80
2022-11-27T07:35:13.119Z,2.70
2022-11-27T07:37:41.341Z,2.80
2022-11-27T07:40:10.871Z,2.90
2022-11-27T07:42:39.650Z,3.00
2022-11-27T07:45:11.569Z,3.10
2022-11-27T07:47:40.755Z,3.20
2022-11-27T07:50:11.075Z,3.30
2022-11-27T07:52:41.764Z,3.30
2022-11-27T07:55:11.634Z,3.30
2022-11-27T07:57:40.225Z,3.40
2022-11-27T08:00:12.526Z,3.50
2022-11-27T08:02:40.685Z,3.60
2022-11-27T08:05:12.964Z,3.70
2022-11-27T08:07:41.781Z,3.70
2022-11-27T08:10:10.688Z,3.90
2022-11-27T08:12:39.165Z,3.90
2022-11-27T08:15:11.162Z,3.90
2022-11-27T08:17:42.087Z,4.00
2022-11-27T08:20:11.645Z,4.00
2022-11-27T08:22:40.325Z,4.10
2022-11-27T08:25:10.229Z,4.20
2022-11-27T08:27:38.502Z,4.30
2022-11-27T08:30:10.229Z,4.40
2022-11-27T08:32:40.715Z,4.50
2022-11-27T08:35:10.336Z,4.60
2022-11-27T08:37:39.147Z,4.70
2022-11-27T08:40:10.135Z,4.80
2022-11-27T08:42:38.459Z,4.80
2022-11-27T08:45:09.940Z,4.90
2022-11-27T08:47:38.152Z,4.90
2022-11-27T08:50:08.751Z,5.00
2022-11-27T08:52:37.362Z,5.00
2022-11-27T08:55:06.598Z,5.10
2022-11-27T08:57:36.715Z,5.10
2022-11-27T09:00:08.187Z,5.30
2022-11-27T09:02:37.959Z,5.40
2022-11-27T09:05:07.618Z,5.50
2022-11-27T09:07:35.924Z,5.70
2022-11-27T09:10:04.573Z,5.80
2022-11-27T09:12:33.012Z,5.90
2022-11-27T09:15:02.206Z,6.10
2022-11-27T09:17:32.121Z,6.20
2022-11-27T09:20:02.092Z,6.30
2022-11-27T09:22:30.191Z,6.40
2022-11-27T09:24:58.875Z,6.50
2022-11-27T09:27:27.197Z,6.60
2022-11-27T09:29:55.531Z,6.70
2022-11-27T09:32:24.472Z,6.90
2022-11-27T09:34:53.293Z,7.00
2022-11-27T09:37:22.805Z,7.20
2022-11-27T09:39:50.889Z,7.30
2022-11-27T09:42:39.475Z,7.40
2022-11-27T09:45:17.319Z,7.50
2022-11-27T09:47:51.384Z,7.60
2022-11-27T09:50:25.973Z,7.70
2022-11-27T09:53:00.840Z,7.70
2022-11-27T09:55:38.116Z,7.70
2022-11-27T09:58:18.839Z,7.80
2022-11-27T10:00:49.703Z,7.90
2022-11-27T10:03:25.450Z,8.10
2022-11-27T10:06:12.585Z,8.40
2022-11-27T10:08:56.885Z,8.90
2022-11-27T10:11:34.088Z,9.30
2022-11-27T10:14:30.041Z,9.70
2022-11-27T10:17:06.282Z,10.00
2022-11-27T10:19:46.566Z,10.20
2022-11-27T10:22:23.310Z,10.40
2022-11-27T10:25:04.718Z,10.50
2022-11-27T10:27:42.759Z,10.50
2022-11-27T10:30:16.826Z,10.60
2022-11-27T10:32:56.761Z,10.50
2022-11-27T10:35:28.927Z,10.40
2022-11-27T10:38:07.109Z,10.40
2022-11-27T10:40:44.493Z,10.30
2022-11-27T10:43:19.430Z,10.20
2022-11-27T10:45:53.179Z,10.30
2022-11-27T10:48:22.071Z,10.10
2022-11-27T10:50:51.659Z,10.00
2022-11-27T10:53:31.069Z,10.00
2022-11-27T10:56:47.562Z,9.80
2022-11-27T10:59:28.692Z,9.80
2022-11-27T11:02:01.781Z,9.80
2022-11-27T11:04:39.962Z,9.70
2022-11-27T11:07:26.948Z,9.50
2022-11-27T11:09:56.808Z,9.50
2022-11-27T11:12:26.271Z,9.50
2022-11-27T11:24:30.654Z,9.80
2022-11-27T11:27:04.718Z,9.90
2022-11-27T11:29:42.581Z,10.10
2022-11-27T11:32:18.471Z,10.40
2022-11-27T11:34:56.229Z,10.60
2022-11-27T11:37:31.326Z,10.70
2022-11-27T11:40:04.214Z,10.70
2022-11-27T11:42:35.996Z,10.40
2022-11-27T11:45:19.539Z,10.20
2022-11-27T11:47:51.048Z,10.10
2022-11-27T11:50:41.706Z,9.90
2022-11-27T11:53:20.627Z,10.10
2022-11-27T11:56:15.096Z,10.40
2022-11-27T11:58:59.051Z,10.70
2022-11-27T12:02:03.940Z,10.90
2022-11-27T12:05:06.353Z,11.00
2022-11-27T12:08:14.280Z,11.00
2022-11-27T12:10:59.279Z,10.90
2022-11-27T12:13:51.249Z,10.80
2022-11-27T12:16:31.391Z,10.70
2022-11-27T12:19:41.388Z,10.60
2022-11-27T12:25:29.940Z,10.20
2022-11-27T12:28:20.115Z,10.00
2022-11-27T12:30:58.472Z,9.90
2022-11-27T12:33:52.694Z,9.90
2022-11-27T12:36:33.903Z,9.90
2022-11-27T12:39:19.554Z,9.90
2022-11-27T12:42:08.810Z,9.70
2022-11-27T12:44:56.015Z,9.70
2022-11-27T12:47:37.339Z,9.70
2022-11-27T12:50:23.650Z,9.60
2022-11-27T12:53:04.400Z,9.70
2022-11-27T12:55:36.872Z,9.70
2022-11-27T12:58:11.899Z,9.70
2022-11-27T13:00:45.132Z,9.70
2022-11-27T13:03:24.119Z,9.70
2022-11-27T13:06:01.125Z,9.60
2022-11-27T13:08:49.715Z,9.60
2022-11-27T13:11:27.257Z,9.40
2022-11-27T13:14:05.047Z,9.30
2022-11-27T13:16:38.911Z,9.20
2022-11-27T13:19:18.063Z,9.10
2022-11-27T13:21:48.620Z,9.10
2022-11-27T13:24:18.742Z,9.10
2022-11-27T13:26:56.023Z,9.00
2022-11-27T13:29:33.179Z,9.10
2022-11-27T13:32:06.044Z,9.10
2022-11-27T13:34:46.001Z,9.10
2022-11-27T13:37:31.232Z,9.10
2022-11-27T13:40:06.570Z,9.10
2022-11-27T13:42:37.926Z,9.00
2022-11-27T13:45:12.741Z,9.00
2022-11-27T13:47:44.607Z,9.00
2022-11-27T13:50:17.884Z,9.00
2022-11-27T13:52:59.276Z,9.00
2022-11-27T13:55:34.042Z,8.90
2022-11-27T13:58:04.696Z,8.90
2022-11-27T14:00:39.062Z,8.90
2022-11-27T14:03:10.612Z,8.90
2022-11-27T14:05:44.697Z,8.90
2022-11-27T14:08:26.546Z,8.90
2022-11-27T14:11:02.355Z,8.90
2022-11-27T14:13:40.394Z,8.90
2022-11-27T14:16:27.292Z,8.80
2022-11-27T14:18:59.932Z,8.70
2022-11-27T14:21:41.097Z,8.60
2022-11-27T14:24:36.711Z,8.60
2022-11-27T14:27:19.959Z,8.50
2022-11-27T14:29:51.675Z,8.50
2022-11-27T14:32:23.555Z,8.40
2022-11-27T14:34:52.493Z,8.40
2022-11-27T14:37:27.180Z,8.30
2022-11-27T14:39:56.419Z,8.20
2022-11-27T14:42:30.656Z,8.20
2022-11-27T14:45:06.598Z,8.10
2022-11-27T14:47:37.199Z,8.00
2022-11-27T14:50:07.598Z,7.90
2022-11-27T14:52:36.530Z,7.80
2022-11-27T14:55:06.192Z,7.80
2022-11-27T14:57:37.357Z,7.60
2022-11-27T15:00:20.197Z,7.50
2022-11-27T15:02:50.785Z,7.50
2022-11-27T15:05:24.577Z,7.50
2022-11-27T15:07:57.634Z,7.50
2022-11-27T15:10:35.893Z,7.50
2022-11-27T15:13:08.770Z,7.50
2022-11-27T15:15:44.831Z,7.50
2022-11-27T15:18:24.295Z,7.40
2022-11-27T15:20:54.341Z,7.40
2022-11-27T15:23:28.370Z,7.40
2022-11-27T15:26:15.978Z,7.40
2022-11-27T15:28:57.786Z,7.40
2022-11-27T15:31:31.233Z,7.30
2022-11-27T15:34:03.948Z,7.30
2022-11-27T15:36:43.986Z,7.20
2022-11-27T15:39:23.599Z,7.20
2022-11-27T15:41:59.284Z,7.20
2022-11-27T15:44:33.064Z,7.10
2022-11-27T15:47:04.035Z,7.10
2022-11-27T15:49:33.188Z,7.10
2022-11-27T15:52:01.379Z,7.00
2022-11-27T15:54:30.041Z,7.00
2022-11-27T15:56:58.170Z,6.90
2022-11-27T15:59:27.897Z,6.90
2022-11-27T16:01:58.015Z,6.90
2022-11-27T16:04:26.892Z,6.90
2022-11-27T16:06:56.488Z,6.80
2022-11-27T16:09:24.622Z,6.80
2022-11-27T16:11:52.825Z,6.70
2022-11-27T16:14:21.179Z,6.70
2022-11-27T16:16:50.019Z,6.60
2022-11-27T16:19:19.623Z,6.60
2022-11-27T16:21:48.519Z,6.60
2022-11-27T16:24:16.967Z,6.60
2022-11-27T16:26:45.365Z,6.60
2022-11-27T16:29:13.818Z,6.60
2022-11-27T16:31:43.192Z,6.60
2022-11-27T16:34:11.423Z,6.60
2022-11-27T16:36:44.469Z,6.60
2022-11-27T16:39:14.501Z,6.60
2022-11-27T16:41:42.615Z,6.60
2022-11-27T16:44:15.132Z,6.60
2022-11-27T16:46:45.389Z,6.60
2022-11-27T16:49:15.874Z,6.60
2022-11-27T16:51:46.466Z,6.50
2022-11-27T16:54:15.662Z,6.50
2022-11-27T16:56:45.157Z,6.50
2022-11-27T16:59:16.839Z,6.50
2022-11-27T17:01:46.275Z,6.50
2022-11-27T17:04:20.083Z,6.40
2022-11-27T17:06:50.917Z,6.50
2022-11-27T17:09:20.672Z,6.40
2022-11-27T17:11:50.046Z,6.40
2022-11-27T17:14:20.713Z,6.40
2022-11-27T17:16:50.680Z,6.40
2022-11-27T17:19:19.767Z,6.40
2022-11-27T17:21:49.814Z,6.40
2022-11-27T17:24:18.647Z,6.40
2022-11-27T17:26:50.143Z,6.40
2022-11-27T17:29:22.071Z,6.40
2022-11-27T17:31:51.735Z,6.40
2022-11-27T17:34:22.721Z,6.40
2022-11-27T17:36:57.273Z,6.40
2022-11-27T17:39:25.762Z,6.40
2022-11-27T17:41:53.891Z,6.40
2022-11-27T17:44:22.905Z,6.40
2022-11-27T17:46:51.025Z,6.30
2022-11-27T17:49:22.385Z,6.30
2022-11-27T17:51:53.047Z,6.30
2022-11-27T17:54:22.700Z,6.30
2022-11-27T17:56:52.151Z,6.30
2022-11-27T17:59:22.294Z,6.40
2022-11-27T18:01:52.937Z,6.50
2022-11-27T18:04:22.554Z,6.40
2022-11-27T18:06:52.881Z,6.40
2022-11-27T18:09:24.978Z,6.30
2022-11-27T18:11:57.746Z,6.40
2022-11-27T18:14:26.759Z,6.30
2022-11-27T18:16:55.040Z,6.30
2022-11-27T18:19:23.421Z,6.30
2022-11-27T18:21:54.509Z,6.30
2022-11-27T18:24:24.269Z,6.30
2022-11-27T18:27:10.127Z,6.40
2022-11-27T18:29:40.566Z,6.40
2022-11-27T18:32:10.491Z,6.50
2022-11-27T18:34:39.883Z,6.50
2022-11-27T18:37:09.926Z,6.50
2022-11-27T18:39:40.362Z,6.50
2022-11-27T18:42:09.312Z,6.50
2022-11-27T18:44:44.691Z,6.50
2022-11-27T18:47:14.512Z,6.60
2022-11-27T18:49:44.894Z,6.60
2022-11-27T18:52:15.408Z,6.70
2022-11-27T18:54:44.963Z,6.70
2022-11-27T18:57:13.382Z,6.70
2022-11-27T18:59:44.691Z,6.70
2022-11-27T19:02:14.078Z,6.70
2022-11-27T19:04:44.579Z,6.70
2022-11-27T19:07:15.590Z,6.60
2022-11-27T19:09:44.168Z,6.60
2022-11-27T19:12:14.226Z,6.60
2022-11-27T19:14:42.540Z,6.60
2022-11-27T19:17:11.895Z,6.60
2022-11-27T19:19:55.929Z,6.60
2022-11-27T19:22:26.020Z,6.60
2022-11-27T19:24:56.788Z,6.60
2022-11-27T19:27:25.438Z,6.60
2022-11-27T19:29:54.009Z,6.60
2022-11-27T19:32:22.012Z,6.70
2022-11-27T19:34:51.689Z,6.70
2022-11-27T19:37:33.701Z,6.80
2022-11-27T19:40:07.210Z,6.80
2022-11-27T19:42:35.721Z,6.60
2022-11-27T19:45:05.086Z,6.60
2022-11-27T19:47:33.518Z,6.60
2022-11-27T19:50:02.876Z,6.60
2022-11-27T19:52:32.433Z,6.70
2022-11-27T19:55:00.650Z,6.70
2022-11-27T19:57:30.389Z,6.70
2022-11-27T19:59:59.631Z,6.80
2022-11-27T20:02:29.997Z,6.80
2022-11-27T20:04:58.532Z,6.80
2022-11-27T20:07:27.392Z,6.70
2022-11-27T20:09:56.810Z,6.70
2022-11-27T20:12:25.439Z,6.80
2022-11-27T20:14:55.238Z,6.70
2022-11-27T20:17:23.775Z,6.60
2022-11-27T20:19:52.141Z,6.50
2022-11-27T20:22:20.378Z,6.50
2022-11-27T20:25:17.353Z,6.50
2022-11-27T20:27:38.011Z,6.60
2022-11-27T20:30:10.500Z,6.60
2022-11-27T20:32:39.052Z,6.70
2022-11-27T20:35:07.990Z,6.70
2022-11-27T20:37:36.753Z,6.70
2022-11-27T20:40:06.594Z,6.70
2022-11-27T20:42:34.782Z,6.60
2022-11-27T20:45:05.111Z,6.70
2022-11-27T20:47:36.468Z,6.60
2022-11-27T20:50:07.132Z,6.70
2022-11-27T20:52:35.302Z,6.70
2022-11-27T20:55:04.404Z,6.70
2022-11-27T20:57:34.094Z,6.70
2022-11-27T21:00:03.147Z,6.70
2022-11-27T21:02:33.884Z,6.70
2022-11-27T21:05:04.797Z,6.70
2022-11-27T21:07:36.672Z,6.60
2022-11-27T21:10:06.910Z,6.60
2022-11-27T21:12:35.526Z,6.50
2022-11-27T21:15:04.407Z,6.60
2022-11-27T21:17:33.730Z,6.60
2022-11-27T21:20:04.126Z,6.60
2022-11-27T21:22:33.416Z,6.60
2022-11-27T21:25:01.694Z,6.70
2022-11-27T21:27:31.727Z,6.70
2022-11-27T21:29:59.895Z,6.80
2022-11-27T21:32:28.879Z,6.80
2022-11-27T21:34:58.689Z,6.70
2022-11-27T21:37:28.710Z,6.70
2022-11-27T21:39:58.262Z,6.70
2022-11-27T21:42:28.779Z,6.70
2022-11-27T21:44:57.037Z,6.60
2022-11-27T21:47:25.413Z,6.60
2022-11-27T21:49:53.552Z,6.60
2022-11-27T21:52:21.853Z,6.60
2022-11-27T21:54:52.624Z,6.70
2022-11-27T21:57:21.999Z,6.70
2022-11-27T21:59:50.397Z,6.60
2022-11-27T22:02:18.674Z,6.60
2022-11-27T22:04:47.172Z,6.60
2022-11-27T22:07:15.497Z,6.60
2022-11-27T22:09:44.101Z,6.60
2022-11-27T22:12:14.051Z,6.60
2022-11-27T22:14:42.498Z,6.60
2022-11-27T22:17:12.778Z,6.60
2022-11-27T22:19:42.411Z,6.60
2022-11-27T22:22:10.632Z,6.60
2022-11-27T22:24:39.676Z,6.60
2022-11-27T22:27:08.694Z,6.60
2022-11-27T22:29:38.247Z,6.60
2022-11-27T22:32:07.380Z,6.60
2022-11-27T22:34:35.570Z,6.50
2022-11-27T22:37:05.917Z,6.50
2022-11-27T22:39:34.954Z,6.50
2022-11-27T22:42:03.899Z,6.40
2022-11-27T22:44:32.189Z,6.40
2022-11-27T22:47:01.847Z,6.30
2022-11-27T22:49:30.055Z,6.40
2022-11-27T22:51:58.478Z,6.30
2022-11-27T22:54:27.151Z,6.30
2022-11-27T22:56:56.231Z,6.30
2022-11-27T22:59:32.392Z,6.30
2022-11-27T23:02:04.929Z,6.30
2022-11-27T23:04:34.701Z,6.30
2022-11-27T23:07:04.105Z,6.30
2022-11-27T23:09:32.991Z,6.30
2022-11-27T23:12:02.185Z,6.40
2022-11-27T23:14:30.677Z,6.30
2022-11-27T23:16:58.944Z,6.30
2022-11-27T23:19:28.678Z,6.40
2022-11-27T23:21:57.122Z,6.30
2022-11-27T23:24:25.722Z,6.20
2022-11-27T23:26:53.890Z,6.20
2022-11-27T23:29:22.473Z,6.20
2022-11-27T23:31:51.780Z,6.10
2022-11-27T23:34:20.589Z,6.00
2022-11-27T23:36:50.054Z,6.00
2022-11-27T23:39:18.872Z,6.10
2022-11-27T23:41:49.210Z,6.10
2022-11-27T23:44:17.894Z,6.00
2022-11-27T23:46:46.458Z,6.00
2022-11-27T23:49:15.181Z,6.00
2022-11-27T23:51:43.787Z,6.00
2022-11-27T23:54:13.749Z,6.00
2022-11-27T23:56:43.391Z,5.80
2022-11-27T23:59:11.760Z,5.80
